createdAt,value
2023-08-17T00:29:40.870Z,70.59
2023-08-17T00:32:09.722Z,70.10
2023-08-17T00:34:40.027Z,70.13
2023-08-17T00:37:48.356Z,70.02
2023-08-17T00:40:26.061Z,70.08
2023-08-17T00:42:58.585Z,70.15
2023-08-17T00:45:56.797Z,70.30
2023-08-17T00:48:29.593Z,70.49
2023-08-17T00:51:18.863Z,70.61
2023-08-17T00:54:01.787Z,70.53
2023-08-17T00:56:33.246Z,70.90
2023-08-17T00:59:06.432Z,70.99
2023-08-17T01:01:43.692Z,71.20
2023-08-17T01:04:37.295Z,71.28
2023-08-17T01:07:09.784Z,71.69
2023-08-17T01:09:41.007Z,71.82
2023-08-17T01:12:56.166Z,71.78
2023-08-17T01:15:59.026Z,72.04
2023-08-17T01:18:39.168Z,72.09
2023-08-17T01:21:12.119Z,71.78
2023-08-17T01:23:51.390Z,71.88
2023-08-17T01:26:20.310Z,71.80
2023-08-17T01:28:53.168Z,71.69
2023-08-17T01:31:25.635Z,71.72
2023-08-17T01:33:57.794Z,71.57
2023-08-17T01:36:35.993Z,71.53
2023-08-17T01:39:09.061Z,71.57
2023-08-17T01:41:37.936Z,71.43
2023-08-17T01:44:09.262Z,71.47
2023-08-17T01:46:47.405Z,71.49
2023-08-17T01:49:21.024Z,71.48
2023-08-17T01:51:49.770Z,71.48
2023-08-17T01:54:25.386Z,71.61
2023-08-17T01:56:59.875Z,71.78
2023-08-17T01:59:35.562Z,71.86
2023-08-17T02:02:10.060Z,71.85
2023-08-17T02:04:42.489Z,71.88
2023-08-17T02:07:14.783Z,71.81
2023-08-17T02:09:49.690Z,71.69
2023-08-17T02:12:20.328Z,71.53
2023-08-17T02:14:49.284Z,71.49
2023-08-17T02:17:19.742Z,71.62
2023-08-17T02:19:50.125Z,71.51
2023-08-17T02:22:29.815Z,71.04
2023-08-17T02:25:01.122Z,70.99
2023-08-17T02:27:32.729Z,70.88
2023-08-17T02:32:45.629Z,70.91
2023-08-17T02:35:17.006Z,70.96
2023-08-17T02:37:46.874Z,70.91
2023-08-17T02:40:14.334Z,70.91
2023-08-17T02:42:45.923Z,70.98
2023-08-17T02:45:15.142Z,71.06
2023-08-17T02:47:43.679Z,71.04
2023-08-17T02:50:18.092Z,70.96
2023-08-17T02:52:48.822Z,70.84
2023-08-17T02:55:18.786Z,70.82
2023-08-17T02:57:48.863Z,70.78
2023-08-17T03:00:19.962Z,70.67
2023-08-17T03:02:49.355Z,70.44
2023-08-17T03:05:18.102Z,70.44
2023-08-17T03:07:53.427Z,70.42
2023-08-17T03:10:24.809Z,70.32
2023-08-17T03:12:55.057Z,69.93
2023-08-17T03:15:28.509Z,70.13
2023-08-17T03:18:00.172Z,69.98
2023-08-17T03:20:30.566Z,69.82
2023-08-17T03:23:10.934Z,69.62
2023-08-17T03:25:41.280Z,69.50
2023-08-17T03:28:11.411Z,69.31
2023-08-17T03:30:41.607Z,68.85
2023-08-17T03:33:10.337Z,68.48
2023-08-17T03:35:44.045Z,68.36
2023-08-17T03:38:15.506Z,68.32
2023-08-17T03:40:45.188Z,68.42
2023-08-17T03:43:18.818Z,68.20
2023-08-17T03:45:49.432Z,68.33
2023-08-17T03:48:17.629Z,68.34
2023-08-17T03:51:15.405Z,68.28
2023-08-17T03:53:44.034Z,68.51
2023-08-17T03:56:12.714Z,68.57
2023-08-17T03:58:40.693Z,68.57
2023-08-17T04:01:13.218Z,68.72
2023-08-17T04:03:43.764Z,68.87
2023-08-17T04:06:14.689Z,69.03
2023-08-17T04:08:44.578Z,69.09
2023-08-17T04:11:15.764Z,69.32
2023-08-17T04:13:46.297Z,69.37
2023-08-17T04:16:18.663Z,69.12
2023-08-17T04:18:47.115Z,68.80
2023-08-17T04:21:22.257Z,68.14
2023-08-17T04:23:55.888Z,67.77
2023-08-17T04:26:58.135Z,67.63
2023-08-17T04:29:33.065Z,67.31
2023-08-17T04:32:06.495Z,67.22
2023-08-17T04:35:06.591Z,67.44
2023-08-17T04:38:08.623Z,67.59
2023-08-17T04:41:07.077Z,67.23
2023-08-17T04:43:42.500Z,67.03
2023-08-17T04:46:38.208Z,66.90
2023-08-17T04:49:10.769Z,66.90
2023-08-17T04:51:47.361Z,66.52
2023-08-17T04:54:17.154Z,66.47
2023-08-17T04:56:48.331Z,66.45
2023-08-17T04:59:16.310Z,66.25
2023-08-17T05:02:10.390Z,66.31
2023-08-17T05:04:40.464Z,66.55
2023-08-17T05:07:14.817Z,66.34
2023-08-17T05:09:45.686Z,65.86
2023-08-17T05:12:22.474Z,65.57
2023-08-17T05:14:58.920Z,65.34
2023-08-17T05:17:37.485Z,65.04
2023-08-17T05:20:10.005Z,64.45
2023-08-17T05:22:46.384Z,64.59
2023-08-17T05:25:19.900Z,64.18
2023-08-17T05:27:54.869Z,64.19
2023-08-17T05:40:16.264Z,63.96
2023-08-17T05:42:48.642Z,63.84
2023-08-17T05:45:44.418Z,63.16
2023-08-17T05:49:07.150Z,62.56
2023-08-17T05:51:40.208Z,62.11
2023-08-17T05:54:19.738Z,61.78
2023-08-17T05:57:17.290Z,62.22
2023-08-17T06:00:02.915Z,61.63
2023-08-17T06:03:11.067Z,60.69
2023-08-17T06:05:50.431Z,60.62
2023-08-17T06:08:28.850Z,61.01
2023-08-17T06:11:03.807Z,61.85
2023-08-17T06:14:03.061Z,62.14
2023-08-17T06:16:31.860Z,62.29
2023-08-17T06:19:04.861Z,62.61
2023-08-17T06:21:52.437Z,62.37
2023-08-17T06:24:43.964Z,61.90
2023-08-17T06:27:21.466Z,61.27
2023-08-17T06:30:05.032Z,60.88
2023-08-17T06:32:38.568Z,61.02
2023-08-17T06:35:08.375Z,61.02
2023-08-17T06:37:42.814Z,60.96
2023-08-17T06:40:12.226Z,60.55
2023-08-17T06:42:47.207Z,59.43
2023-08-17T06:45:24.160Z,59.23
2023-08-17T06:47:52.781Z,59.05
2023-08-17T06:50:24.686Z,59.46
2023-08-17T06:52:55.405Z,59.34
2023-08-17T06:55:53.376Z,59.47
2023-08-17T06:58:30.192Z,58.83
2023-08-17T07:01:08.314Z,58.86
2023-08-17T07:03:46.423Z,58.24
2023-08-17T07:06:28.521Z,58.65
2023-08-17T07:09:07.300Z,58.17
2023-08-17T07:11:39.000Z,58.27
2023-08-17T07:14:11.123Z,57.85
2023-08-17T07:16:40.632Z,57.49
2023-08-17T07:20:03.912Z,57.28
2023-08-17T07:22:29.398Z,56.58
2023-08-17T07:25:03.480Z,55.94
2023-08-17T07:28:06.111Z,55.20
2023-08-17T07:33:39.778Z,55.29
2023-08-17T07:36:09.176Z,55.31
2023-08-17T07:38:44.708Z,54.08
2023-08-17T07:41:14.780Z,54.08
2023-08-17T07:43:55.211Z,53.44
2023-08-17T07:46:26.425Z,52.15
2023-08-17T07:48:59.877Z,52.07
2023-08-17T07:52:01.189Z,52.32
2023-08-17T07:54:35.295Z,51.86
2023-08-17T07:57:12.813Z,51.40
2023-08-17T07:59:51.646Z,51.19
2023-08-17T08:03:26.255Z,51.41
2023-08-17T08:06:08.563Z,51.30
2023-08-17T08:08:42.446Z,51.69
2023-08-17T08:11:20.184Z,51.47
2023-08-17T08:14:00.365Z,50.69
2023-08-17T08:16:36.955Z,50.96
2023-08-17T08:19:08.349Z,50.39
2023-08-17T08:21:46.710Z,50.42
2023-08-17T08:28:07.215Z,50.21
2023-08-17T08:31:10.756Z,50.46
2023-08-17T08:34:19.832Z,49.84
2023-08-17T08:40:16.469Z,48.40
2023-08-17T08:43:17.088Z,47.97
2023-08-17T08:46:22.591Z,48.65
2023-08-17T08:49:04.480Z,47.59
2023-08-17T08:55:26.509Z,47.19
2023-08-17T08:58:00.418Z,47.00
2023-08-17T09:01:34.553Z,47.12
2023-08-17T09:04:28.626Z,46.14
2023-08-17T09:07:23.121Z,46.14
2023-08-17T09:09:58.279Z,46.48
2023-08-17T09:12:49.124Z,45.67
2023-08-17T09:15:39.542Z,45.28
2023-08-17T09:18:21.029Z,44.64
2023-08-17T09:21:01.897Z,44.45
2023-08-17T09:24:05.197Z,43.57
2023-08-17T09:26:48.135Z,43.50
2023-08-17T09:30:09.410Z,43.62
2023-08-17T09:34:07.843Z,43.23
2023-08-17T09:36:57.168Z,42.76
2023-08-17T09:39:46.697Z,42.55
2023-08-17T09:43:19.503Z,42.98
2023-08-17T09:45:53.578Z,42.77
2023-08-17T09:48:48.852Z,42.68
2023-08-17T09:51:43.112Z,43.27
2023-08-17T09:54:40.513Z,42.81
2023-08-17T09:57:27.570Z,42.38
2023-08-17T10:13:47.135Z,42.71
2023-08-17T10:16:46.814Z,41.65
2023-08-17T10:20:10.537Z,42.18
2023-08-17T10:23:42.720Z,41.68
2023-08-17T10:30:00.264Z,40.52
2023-08-17T10:36:24.410Z,41.10
2023-08-17T10:39:40.526Z,40.59
2023-08-17T10:42:22.031Z,39.75
2023-08-17T10:45:08.709Z,40.09
2023-08-17T10:48:28.777Z,40.84
2023-08-17T10:51:33.883Z,41.01
2023-08-17T10:54:10.208Z,40.98
2023-08-17T10:57:37.037Z,41.26
2023-08-17T11:01:10.157Z,39.53
2023-08-17T11:03:51.257Z,39.07
2023-08-17T11:06:25.804Z,39.87
2023-08-17T11:09:06.485Z,39.82
2023-08-17T11:11:40.200Z,39.03
2023-08-17T11:14:31.485Z,39.42
2023-08-17T11:17:08.214Z,40.04
2023-08-17T11:19:46.454Z,39.52
2023-08-17T11:22:26.969Z,39.30
2023-08-17T11:25:00.853Z,38.43
2023-08-17T11:27:38.795Z,38.45
2023-08-17T11:30:22.979Z,38.57
2023-08-17T11:33:00.809Z,38.54
2023-08-17T11:35:34.482Z,39.52
2023-08-17T11:38:17.317Z,40.31
2023-08-17T11:41:01.019Z,39.73
2023-08-17T11:44:05.370Z,39.37
2023-08-17T11:46:43.031Z,39.78
2023-08-17T11:49:19.101Z,38.26
2023-08-17T11:51:56.376Z,38.62
2023-08-17T11:54:34.728Z,38.72
2023-08-17T11:57:18.279Z,39.27
2023-08-17T11:59:59.614Z,39.59
2023-08-17T12:03:01.364Z,39.65
2023-08-17T12:05:41.064Z,39.69
2023-08-17T12:08:16.421Z,39.48
2023-08-17T12:10:46.591Z,38.79
2023-08-17T12:13:21.686Z,38.94
2023-08-17T12:15:52.655Z,38.36
2023-08-17T12:18:51.229Z,38.33
2023-08-17T12:21:25.069Z,38.24
2023-08-17T12:24:24.616Z,38.42
2023-08-17T12:26:55.814Z,37.70
2023-08-17T12:29:56.134Z,37.50
2023-08-17T12:32:32.563Z,37.28
2023-08-17T12:39:03.832Z,36.88
2023-08-17T12:42:12.356Z,36.50
2023-08-17T12:46:58.294Z,36.25
2023-08-17T12:49:39.447Z,36.75
2023-08-17T12:52:18.224Z,37.00
2023-08-17T12:54:57.888Z,37.35
2023-08-17T12:57:33.913Z,36.91
2023-08-17T13:00:11.489Z,37.03
2023-08-17T13:02:42.348Z,36.90
2023-08-17T13:05:14.214Z,37.14
2023-08-17T13:07:49.723Z,36.71
2023-08-17T13:10:26.692Z,36.77
2023-08-17T13:13:02.691Z,37.12
2023-08-17T13:16:02.335Z,37.51
2023-08-17T13:18:34.183Z,37.04
2023-08-17T13:21:20.400Z,36.53
2023-08-17T13:24:11.491Z,35.73
2023-08-17T13:26:54.062Z,36.23
2023-08-17T13:29:30.239Z,36.23
2023-08-17T13:32:33.931Z,36.50
2023-08-17T13:35:12.798Z,35.85
2023-08-17T13:42:32.726Z,36.39
2023-08-17T13:45:35.321Z,36.45
2023-08-17T13:52:44.049Z,36.39
2023-08-17T13:55:18.502Z,36.45
2023-08-17T13:58:36.164Z,36.63
2023-08-17T14:01:15.400Z,36.78
2023-08-17T14:03:43.540Z,36.66
2023-08-17T14:07:35.448Z,35.64
2023-08-17T14:10:28.919Z,34.55
2023-08-17T14:13:55.853Z,34.27
2023-08-17T14:16:28.197Z,33.48
2023-08-17T14:19:37.820Z,33.47
2023-08-17T14:22:25.797Z,34.11
2023-08-17T14:25:35.011Z,34.02
2023-08-17T14:28:15.351Z,33.29
2023-08-17T14:30:58.110Z,32.77
2023-08-17T14:33:51.403Z,32.81
2023-08-17T14:36:52.637Z,33.10
2023-08-17T14:39:28.957Z,33.77
2023-08-17T14:42:05.458Z,33.84
2023-08-17T14:44:39.530Z,33.38
2023-08-17T14:47:21.901Z,33.22
2023-08-17T14:49:56.599Z,32.84
2023-08-17T14:52:34.374Z,32.68
2023-08-17T14:55:14.355Z,32.69
2023-08-17T14:57:46.866Z,32.50
2023-08-17T15:00:34.028Z,32.76
2023-08-17T15:03:07.747Z,32.81
2023-08-17T15:05:39.661Z,33.34
2023-08-17T15:08:17.203Z,33.39
2023-08-17T15:11:12.804Z,33.10
2023-08-17T15:13:43.645Z,33.07
2023-08-17T15:16:18.288Z,33.47
2023-08-17T15:18:49.346Z,33.61
2023-08-17T15:21:21.386Z,33.68
2023-08-17T15:24:03.328Z,33.04
2023-08-17T15:26:38.177Z,33.25
2023-08-17T15:29:10.655Z,33.40
2023-08-17T15:31:46.415Z,33.95
2023-08-17T15:34:21.920Z,34.31
2023-08-17T15:36:57.405Z,33.95
2023-08-17T15:43:10.309Z,34.78
2023-08-17T15:45:47.578Z,35.32
2023-08-17T15:48:21.841Z,35.70
2023-08-17T15:50:58.453Z,36.19
2023-08-17T15:53:31.956Z,36.98
2023-08-17T15:56:10.432Z,37.52
2023-08-17T15:58:43.715Z,37.74
2023-08-17T16:01:22.412Z,37.94
2023-08-17T16:03:51.475Z,38.19
2023-08-17T16:06:46.680Z,38.16
2023-08-17T16:09:19.007Z,38.25
2023-08-17T16:11:53.220Z,38.27
2023-08-17T16:14:29.712Z,38.48
2023-08-17T16:17:31.824Z,38.50
2023-08-17T16:21:00.288Z,38.87
2023-08-17T16:23:40.327Z,39.25
2023-08-17T16:26:34.299Z,39.68
2023-08-17T16:29:21.017Z,39.91
2023-08-17T16:32:09.082Z,40.38
2023-08-17T16:34:51.736Z,40.94
2023-08-17T16:37:49.582Z,41.35
2023-08-17T16:40:36.971Z,42.03
2023-08-17T16:43:24.607Z,42.46
2023-08-17T16:46:15.864Z,42.98
2023-08-17T16:49:11.048Z,43.04
2023-08-17T16:51:45.360Z,43.42
2023-08-17T16:54:47.243Z,43.81
2023-08-17T16:57:58.937Z,44.19
2023-08-17T17:05:09.529Z,44.50
2023-08-17T17:07:44.876Z,44.73
2023-08-17T17:10:23.572Z,44.74
2023-08-17T17:13:35.943Z,45.10
2023-08-17T17:16:14.967Z,45.49
2023-08-17T17:19:05.951Z,45.73
2023-08-17T17:22:00.744Z,46.28
2023-08-17T17:25:24.275Z,46.92
2023-08-17T17:31:54.586Z,47.58
2023-08-17T17:35:05.051Z,47.88
2023-08-17T17:38:11.139Z,48.47
2023-08-17T17:41:01.634Z,48.57
2023-08-17T17:44:01.532Z,48.70
2023-08-17T17:47:05.833Z,49.15
2023-08-17T17:50:05.857Z,49.98
2023-08-17T17:52:47.520Z,50.56
2023-08-17T18:05:17.525Z,52.27
2023-08-17T18:07:58.055Z,52.39
2023-08-17T18:10:34.144Z,52.64
2023-08-17T18:13:15.207Z,52.98
2023-08-17T18:16:08.002Z,53.23
2023-08-17T18:19:09.254Z,53.50
2023-08-17T18:22:09.253Z,53.69
2023-08-17T18:24:42.835Z,53.87
2023-08-17T18:27:22.729Z,53.87
2023-08-17T18:33:47.704Z,54.05
2023-08-17T18:41:29.281Z,54.08
2023-08-17T18:44:11.502Z,53.93
2023-08-17T18:47:26.198Z,53.81
2023-08-17T18:50:19.017Z,53.98
2023-08-17T18:52:52.016Z,54.17
2023-08-17T18:55:47.982Z,54.49
2023-08-17T18:58:59.961Z,54.67
2023-08-17T19:01:44.540Z,54.97
2023-08-17T19:05:02.360Z,55.19
2023-08-17T19:08:48.845Z,55.20
2023-08-17T19:12:17.936Z,55.31
2023-08-17T19:14:59.554Z,55.41
2023-08-17T19:17:53.748Z,55.65
2023-08-17T19:20:57.825Z,55.66
2023-08-17T19:23:33.833Z,55.75
2023-08-17T19:26:02.174Z,55.85
2023-08-17T19:28:30.865Z,55.62
2023-08-17T19:30:58.190Z,55.69
2023-08-17T19:33:25.392Z,55.84
2023-08-17T19:35:52.634Z,55.72
2023-08-17T19:38:19.572Z,55.66
2023-08-17T19:40:47.465Z,55.77
2023-08-17T19:43:16.421Z,55.82
2023-08-17T19:45:44.458Z,56.07
2023-08-17T19:48:12.770Z,56.41
2023-08-17T19:50:42.461Z,56.51
2023-08-17T19:53:11.585Z,56.85
2023-08-17T19:55:40.146Z,56.89
2023-08-17T19:58:07.416Z,57.13
2023-08-17T20:00:37.218Z,57.20
2023-08-17T20:03:06.492Z,57.45
2023-08-17T20:05:34.039Z,57.85
2023-08-17T20:08:01.731Z,57.87
2023-08-17T20:10:31.737Z,57.83
2023-08-17T20:13:10.645Z,57.89
2023-08-17T20:16:14.297Z,58.23
2023-08-17T20:18:53.996Z,58.24
2023-08-17T20:26:28.190Z,57.93
2023-08-17T20:29:08.589Z,57.69
2023-08-17T20:31:42.880Z,57.85
2023-08-17T20:34:14.333Z,57.92
2023-08-17T20:36:44.985Z,58.32
2023-08-17T20:39:42.849Z,58.53
2023-08-17T20:42:18.353Z,58.60
2023-08-17T20:45:00.495Z,59.05
2023-08-17T20:48:03.202Z,59.17
2023-08-17T20:50:39.355Z,59.22
2023-08-17T20:53:12.861Z,59.53
2023-08-17T20:56:27.692Z,59.64
2023-08-17T20:58:56.909Z,59.94
2023-08-17T21:01:37.313Z,60.16
2023-08-17T21:04:12.000Z,60.54
2023-08-17T21:06:44.600Z,60.62
2023-08-17T21:09:16.806Z,60.67
2023-08-17T21:11:45.228Z,60.82
2023-08-17T21:14:19.441Z,61.14
2023-08-17T21:16:49.558Z,61.85
2023-08-17T21:19:24.416Z,62.26
2023-08-17T21:21:54.352Z,62.51
2023-08-17T21:24:35.198Z,62.99
2023-08-17T21:27:04.216Z,63.49
2023-08-17T21:29:41.622Z,63.57
2023-08-17T21:32:29.866Z,63.35
2023-08-17T21:35:16.067Z,63.59
2023-08-17T21:37:51.702Z,63.62
2023-08-17T21:40:20.977Z,63.65
2023-08-17T21:42:52.558Z,63.95
2023-08-17T21:45:20.104Z,64.09
2023-08-17T21:47:51.387Z,64.29
2023-08-17T21:50:21.327Z,64.59
2023-08-17T21:52:48.449Z,64.85
2023-08-17T21:55:19.006Z,65.20
2023-08-17T21:57:51.338Z,65.33
2023-08-17T22:00:20.605Z,65.64
2023-08-17T22:02:53.120Z,65.57
2023-08-17T22:05:24.471Z,65.71
2023-08-17T22:07:56.735Z,66.00
2023-08-17T22:10:26.368Z,66.24
2023-08-17T22:12:56.512Z,66.33
2023-08-17T22:15:27.671Z,66.72
2023-08-17T22:18:01.632Z,67.09
2023-08-17T22:20:38.838Z,67.21
2023-08-17T22:23:08.083Z,67.26
2023-08-17T22:25:38.400Z,67.40
2023-08-17T22:28:06.894Z,67.52
2023-08-17T22:30:51.844Z,67.80
2023-08-17T22:33:22.687Z,68.12
2023-08-17T22:35:51.144Z,68.11
2023-08-17T22:38:21.148Z,68.07
2023-08-17T22:40:54.937Z,68.26
2023-08-17T22:43:27.842Z,68.29
2023-08-17T22:45:57.158Z,68.44
2023-08-17T22:48:26.296Z,68.66
2023-08-17T22:51:09.211Z,68.78
2023-08-17T22:53:41.735Z,68.81
2023-08-17T22:56:15.841Z,68.77
2023-08-17T22:58:43.676Z,68.49
2023-08-17T23:01:15.955Z,68.51
2023-08-17T23:03:52.019Z,68.42
2023-08-17T23:06:21.330Z,68.20
2023-08-17T23:08:55.094Z,68.32
2023-08-17T23:11:26.523Z,68.37
2023-08-17T23:13:56.941Z,68.53
2023-08-17T23:16:29.296Z,68.43
2023-08-17T23:18:58.496Z,68.53
2023-08-17T23:21:27.142Z,68.62
2023-08-17T23:23:57.030Z,68.81
2023-08-17T23:26:29.257Z,69.00
2023-08-17T23:29:01.131Z,69.21
2023-08-17T23:31:53.411Z,69.05
2023-08-17T23:34:28.759Z,69.29
2023-08-17T23:36:57.343Z,69.54
2023-08-17T23:39:26.006Z,69.71
2023-08-17T23:41:57.056Z,69.85
2023-08-17T23:48:29.719Z,69.86
2023-08-17T23:51:59.436Z,70.04
2023-08-17T23:54:29.629Z,70.07
2023-08-17T23:56:57.929Z,70.21
